sensor_id;sensor_type;location;lat;lon;timestamp;temperature;humidity
59660;DHT22;45534;52.690;6.268;2023-04-24T00:00:56;10.10;99.90
59660;DHT22;45534;52.690;6.268;2023-04-24T00:03:23;10.10;99.90
59660;DHT22;45534;52.690;6.268;2023-04-24T00:05:49;10.10;99.90
59660;DHT22;45534;52.690;6.268;2023-04-24T00:08:15;10.10;99.90
59660;DHT22;45534;52.690;6.268;2023-04-24T00:10:41;10.10;99.90
59660;DHT22;45534;52.690;6.268;2023-04-24T00:13:07;10.10;99.90
59660;DHT22;45534;52.690;6.268;2023-04-24T00:15:32;10.10;99.90
59660;DHT22;45534;52.690;6.268;2023-04-24T00:17:58;10.10;99.90
59660;DHT22;45534;52.690;6.268;2023-04-24T00:20:24;10.10;99.90
59660;DHT22;45534;52.690;6.268;2023-04-24T00:22:49;10.10;99.90
59660;DHT22;45534;52.690;6.268;2023-04-24T00:25:15;10.10;99.90
59660;DHT22;45534;52.690;6.268;2023-04-24T00:27:41;10.10;99.90
59660;DHT22;45534;52.690;6.268;2023-04-24T00:30:07;10.10;99.90
59660;DHT22;45534;52.690;6.268;2023-04-24T00:32:33;10.10;99.90
59660;DHT22;45534;52.690;6.268;2023-04-24T00:34:58;10.10;99.90
59660;DHT22;45534;52.690;6.268;2023-04-24T00:37:24;10.10;99.90
59660;DHT22;45534;52.690;6.268;2023-04-24T00:39:50;10.10;99.90
59660;DHT22;45534;52.690;6.268;2023-04-24T00:42:16;10.10;99.90
59660;DHT22;45534;52.690;6.268;2023-04-24T00:44:42;10.10;99.90
59660;DHT22;45534;52.690;6.268;2023-04-24T00:47:07;10.10;99.90
59660;DHT22;45534;52.690;6.268;2023-04-24T00:49:33;10.10;99.90
59660;DHT22;45534;52.690;6.268;2023-04-24T00:51:59;10.10;99.90
59660;DHT22;45534;52.690;6.268;2023-04-24T00:54:24;10.10;99.90
59660;DHT22;45534;52.690;6.268;2023-04-24T00:56:50;10.20;99.90
59660;DHT22;45534;52.690;6.268;2023-04-24T00:59:17;10.20;99.90
59660;DHT22;45534;52.690;6.268;2023-04-24T01:01:43;10.20;99.90
59660;DHT22;45534;52.690;6.268;2023-04-24T01:04:11;10.20;99.90
59660;DHT22;45534;52.690;6.268;2023-04-24T01:06:43;10.20;99.90
59660;DHT22;45534;52.690;6.268;2023-04-24T01:09:10;10.20;99.90
59660;DHT22;45534;52.690;6.268;2023-04-24T01:11:37;10.20;99.90
59660;DHT22;45534;52.690;6.268;2023-04-24T01:14:03;10.20;99.90
59660;DHT22;45534;52.690;6.268;2023-04-24T01:16:29;10.20;99.90
59660;DHT22;45534;52.690;6.268;2023-04-24T01:18:55;10.20;99.90
59660;DHT22;45534;52.690;6.268;2023-04-24T01:21:21;10.20;99.90
59660;DHT22;45534;52.690;6.268;2023-04-24T01:23:49;10.20;99.90
59660;DHT22;45534;52.690;6.268;2023-04-24T01:26:16;10.20;99.90
59660;DHT22;45534;52.690;6.268;2023-04-24T01:28:42;10.20;99.90
59660;DHT22;45534;52.690;6.268;2023-04-24T01:31:08;10.10;99.90
59660;DHT22;45534;52.690;6.268;2023-04-24T01:33:34;10.10;99.90
59660;DHT22;45534;52.690;6.268;2023-04-24T01:36:00;10.10;99.90
59660;DHT22;45534;52.690;6.268;2023-04-24T01:38:26;10.00;99.90
59660;DHT22;45534;52.690;6.268;2023-04-24T01:40:53;10.00;99.90
59660;DHT22;45534;52.690;6.268;2023-04-24T01:43:19;10.00;99.90
59660;DHT22;45534;52.690;6.268;2023-04-24T01:45:45;10.00;99.90
59660;DHT22;45534;52.690;6.268;2023-04-24T01:48:12;9.90;99.90
59660;DHT22;45534;52.690;6.268;2023-04-24T01:50:38;9.90;99.90
59660;DHT22;45534;52.690;6.268;2023-04-24T01:53:04;9.90;99.90
59660;DHT22;45534;52.690;6.268;2023-04-24T01:55:29;9.90;99.90
59660;DHT22;45534;52.690;6.268;2023-04-24T01:57:56;9.90;99.90
59660;DHT22;45534;52.690;6.268;2023-04-24T02:00:22;9.90;99.90
59660;DHT22;45534;52.690;6.268;2023-04-24T02:02:48;9.90;99.90
59660;DHT22;45534;52.690;6.268;2023-04-24T02:05:13;9.90;99.90
59660;DHT22;45534;52.690;6.268;2023-04-24T02:07:39;9.90;99.90
59660;DHT22;45534;52.690;6.268;2023-04-24T02:10:05;9.90;99.90
59660;DHT22;45534;52.690;6.268;2023-04-24T02:12:31;9.80;99.90
59660;DHT22;45534;52.690;6.268;2023-04-24T02:14:57;9.80;99.90
59660;DHT22;45534;52.690;6.268;2023-04-24T02:17:22;9.80;99.90
59660;DHT22;45534;52.690;6.268;2023-04-24T02:19:48;9.80;99.90
59660;DHT22;45534;52.690;6.268;2023-04-24T02:22:14;9.80;99.90
59660;DHT22;45534;52.690;6.268;2023-04-24T02:24:40;9.80;99.90
59660;DHT22;45534;52.690;6.268;2023-04-24T02:27:06;9.80;99.90
59660;DHT22;45534;52.690;6.268;2023-04-24T02:29:32;9.80;99.90
59660;DHT22;45534;52.690;6.268;2023-04-24T02:31:57;9.80;99.90
59660;DHT22;45534;52.690;6.268;2023-04-24T02:34:23;9.80;99.90
59660;DHT22;45534;52.690;6.268;2023-04-24T02:36:49;9.70;99.90
59660;DHT22;45534;52.690;6.268;2023-04-24T02:39:15;9.70;99.90
59660;DHT22;45534;52.690;6.268;2023-04-24T02:41:44;9.70;99.90
59660;DHT22;45534;52.690;6.268;2023-04-24T02:44:10;9.80;99.90
59660;DHT22;45534;52.690;6.268;2023-04-24T02:46:35;9.70;99.90
59660;DHT22;45534;52.690;6.268;2023-04-24T02:49:01;9.70;99.90
59660;DHT22;45534;52.690;6.268;2023-04-24T02:51:27;9.70;99.90
59660;DHT22;45534;52.690;6.268;2023-04-24T02:53:52;9.70;99.90
59660;DHT22;45534;52.690;6.268;2023-04-24T02:56:18;9.70;99.90
59660;DHT22;45534;52.690;6.268;2023-04-24T02:58:44;9.70;99.90
59660;DHT22;45534;52.690;6.268;2023-04-24T03:01:09;9.60;99.90
59660;DHT22;45534;52.690;6.268;2023-04-24T03:03:36;9.60;99.90
59660;DHT22;45534;52.690;6.268;2023-04-24T03:06:02;9.60;99.90
59660;DHT22;45534;52.690;6.268;2023-04-24T03:08:27;9.60;99.90
59660;DHT22;45534;52.690;6.268;2023-04-24T03:10:53;9.70;99.90
59660;DHT22;45534;52.690;6.268;2023-04-24T03:13:19;9.60;99.90
59660;DHT22;45534;52.690;6.268;2023-04-24T03:15:45;9.70;99.90
59660;DHT22;45534;52.690;6.268;2023-04-24T03:18:12;9.70;99.90
59660;DHT22;45534;52.690;6.268;2023-04-24T03:20:37;9.60;99.90
59660;DHT22;45534;52.690;6.268;2023-04-24T03:23:03;9.60;99.90
59660;DHT22;45534;52.690;6.268;2023-04-24T03:25:29;9.60;99.90
59660;DHT22;45534;52.690;6.268;2023-04-24T03:27:55;9.60;99.90
59660;DHT22;45534;52.690;6.268;2023-04-24T03:30:21;9.50;99.90
59660;DHT22;45534;52.690;6.268;2023-04-24T03:32:46;9.50;99.90
59660;DHT22;45534;52.690;6.268;2023-04-24T03:35:12;9.50;99.90
59660;DHT22;45534;52.690;6.268;2023-04-24T03:37:38;9.50;99.90
59660;DHT22;45534;52.690;6.268;2023-04-24T03:40:04;9.50;99.90
59660;DHT22;45534;52.690;6.268;2023-04-24T03:42:31;9.50;99.90
59660;DHT22;45534;52.690;6.268;2023-04-24T03:44:57;9.50;99.90
59660;DHT22;45534;52.690;6.268;2023-04-24T03:47:22;9.40;99.90
59660;DHT22;45534;52.690;6.268;2023-04-24T03:49:48;9.40;99.90
59660;DHT22;45534;52.690;6.268;2023-04-24T03:52:14;9.30;99.90
59660;DHT22;45534;52.690;6.268;2023-04-24T03:54:39;9.20;99.90
59660;DHT22;45534;52.690;6.268;2023-04-24T03:57:05;9.20;99.90
59660;DHT22;45534;52.690;6.268;2023-04-24T03:59:31;9.10;99.90
59660;DHT22;45534;52.690;6.268;2023-04-24T04:01:56;9.10;99.90
59660;DHT22;45534;52.690;6.268;2023-04-24T04:04:22;9.10;99.90
59660;DHT22;45534;52.690;6.268;2023-04-24T04:06:48;9.10;99.90
59660;DHT22;45534;52.690;6.268;2023-04-24T04:09:14;9.10;99.90
59660;DHT22;45534;52.690;6.268;2023-04-24T04:11:40;9.10;99.90
59660;DHT22;45534;52.690;6.268;2023-04-24T04:14:06;9.10;99.90
59660;DHT22;45534;52.690;6.268;2023-04-24T04:16:32;9.10;99.90
59660;DHT22;45534;52.690;6.268;2023-04-24T04:18:57;9.10;99.90
59660;DHT22;45534;52.690;6.268;2023-04-24T04:21:23;9.10;99.90
59660;DHT22;45534;52.690;6.268;2023-04-24T04:23:49;9.10;99.90
59660;DHT22;45534;52.690;6.268;2023-04-24T04:26:15;9.10;99.90
59660;DHT22;45534;52.690;6.268;2023-04-24T04:28:41;9.10;99.90
59660;DHT22;45534;52.690;6.268;2023-04-24T04:31:07;9.10;99.90
59660;DHT22;45534;52.690;6.268;2023-04-24T04:33:33;9.00;99.90
59660;DHT22;45534;52.690;6.268;2023-04-24T04:35:59;9.10;99.90
59660;DHT22;45534;52.690;6.268;2023-04-24T04:38:25;9.00;99.90
59660;DHT22;45534;52.690;6.268;2023-04-24T04:40:55;9.10;99.90
59660;DHT22;45534;52.690;6.268;2023-04-24T04:43:23;9.00;99.90
59660;DHT22;45534;52.690;6.268;2023-04-24T04:45:49;9.00;99.90
59660;DHT22;45534;52.690;6.268;2023-04-24T04:48:17;9.10;99.90
59660;DHT22;45534;52.690;6.268;2023-04-24T04:50:44;9.10;99.90
59660;DHT22;45534;52.690;6.268;2023-04-24T04:53:10;9.20;99.90
59660;DHT22;45534;52.690;6.268;2023-04-24T04:55:36;9.30;99.90
59660;DHT22;45534;52.690;6.268;2023-04-24T04:58:02;9.40;99.90
59660;DHT22;45534;52.690;6.268;2023-04-24T05:00:31;9.50;99.90
59660;DHT22;45534;52.690;6.268;2023-04-24T05:03:01;9.60;99.90
59660;DHT22;45534;52.690;6.268;2023-04-24T05:05:27;9.60;99.90
59660;DHT22;45534;52.690;6.268;2023-04-24T05:07:55;9.70;99.90
59660;DHT22;45534;52.690;6.268;2023-04-24T05:10:21;9.70;99.90
59660;DHT22;45534;52.690;6.268;2023-04-24T05:12:46;9.80;99.90
59660;DHT22;45534;52.690;6.268;2023-04-24T05:15:12;9.80;99.90
59660;DHT22;45534;52.690;6.268;2023-04-24T05:17:38;9.70;99.90
59660;DHT22;45534;52.690;6.268;2023-04-24T05:20:05;9.70;99.90
59660;DHT22;45534;52.690;6.268;2023-04-24T05:22:32;9.70;99.90
59660;DHT22;45534;52.690;6.268;2023-04-24T05:24:57;9.70;99.90
59660;DHT22;45534;52.690;6.268;2023-04-24T05:27:23;9.80;99.90
59660;DHT22;45534;52.690;6.268;2023-04-24T05:29:49;9.70;99.90
59660;DHT22;45534;52.690;6.268;2023-04-24T05:32:15;9.80;99.90
59660;DHT22;45534;52.690;6.268;2023-04-24T05:34:41;9.70;99.90
59660;DHT22;45534;52.690;6.268;2023-04-24T05:37:06;9.70;99.90
59660;DHT22;45534;52.690;6.268;2023-04-24T05:39:35;9.70;99.90
59660;DHT22;45534;52.690;6.268;2023-04-24T05:42:02;9.70;99.90
59660;DHT22;45534;52.690;6.268;2023-04-24T05:44:30;9.70;99.90
59660;DHT22;45534;52.690;6.268;2023-04-24T05:46:56;9.70;99.90
59660;DHT22;45534;52.690;6.268;2023-04-24T05:49:22;9.80;99.90
59660;DHT22;45534;52.690;6.268;2023-04-24T05:51:47;9.70;99.90
59660;DHT22;45534;52.690;6.268;2023-04-24T05:54:13;9.70;99.90
59660;DHT22;45534;52.690;6.268;2023-04-24T05:56:39;9.80;99.90
59660;DHT22;45534;52.690;6.268;2023-04-24T05:59:06;9.70;99.90
59660;DHT22;45534;52.690;6.268;2023-04-24T06:01:31;9.70;99.90
59660;DHT22;45534;52.690;6.268;2023-04-24T06:03:58;9.70;99.90
59660;DHT22;45534;52.690;6.268;2023-04-24T06:06:24;9.60;99.90
59660;DHT22;45534;52.690;6.268;2023-04-24T06:08:49;9.60;99.90
59660;DHT22;45534;52.690;6.268;2023-04-24T06:11:15;9.60;99.90
59660;DHT22;45534;52.690;6.268;2023-04-24T06:13:41;9.60;99.90
59660;DHT22;45534;52.690;6.268;2023-04-24T06:16:07;9.50;99.90
59660;DHT22;45534;52.690;6.268;2023-04-24T06:18:33;9.50;99.90
59660;DHT22;45534;52.690;6.268;2023-04-24T06:20:59;9.50;99.90
59660;DHT22;45534;52.690;6.268;2023-04-24T06:23:24;9.50;99.90
59660;DHT22;45534;52.690;6.268;2023-04-24T06:25:51;9.50;99.90
59660;DHT22;45534;52.690;6.268;2023-04-24T06:28:17;9.50;99.90
59660;DHT22;45534;52.690;6.268;2023-04-24T06:30:42;9.50;99.90
59660;DHT22;45534;52.690;6.268;2023-04-24T06:33:08;9.40;99.90
59660;DHT22;45534;52.690;6.268;2023-04-24T06:35:35;9.40;99.90
59660;DHT22;45534;52.690;6.268;2023-04-24T06:38:00;9.40;99.90
59660;DHT22;45534;52.690;6.268;2023-04-24T06:40:26;9.40;99.90
59660;DHT22;45534;52.690;6.268;2023-04-24T06:42:52;9.50;99.90
59660;DHT22;45534;52.690;6.268;2023-04-24T06:45:18;9.40;99.90
59660;DHT22;45534;52.690;6.268;2023-04-24T06:47:44;9.40;99.90
59660;DHT22;45534;52.690;6.268;2023-04-24T06:50:10;9.40;99.90
59660;DHT22;45534;52.690;6.268;2023-04-24T06:52:36;9.40;99.90
59660;DHT22;45534;52.690;6.268;2023-04-24T06:55:03;9.40;99.90
59660;DHT22;45534;52.690;6.268;2023-04-24T06:57:29;9.40;99.90
59660;DHT22;45534;52.690;6.268;2023-04-24T06:59:55;9.40;99.90
59660;DHT22;45534;52.690;6.268;2023-04-24T07:02:21;9.40;99.90
59660;DHT22;45534;52.690;6.268;2023-04-24T07:04:47;9.50;99.90
59660;DHT22;45534;52.690;6.268;2023-04-24T07:07:13;9.50;99.90
59660;DHT22;45534;52.690;6.268;2023-04-24T07:09:40;9.50;99.90
59660;DHT22;45534;52.690;6.268;2023-04-24T07:12:10;9.50;99.90
59660;DHT22;45534;52.690;6.268;2023-04-24T07:14:37;9.50;99.90
59660;DHT22;45534;52.690;6.268;2023-04-24T07:17:05;9.50;99.90
59660;DHT22;45534;52.690;6.268;2023-04-24T07:19:33;9.40;99.90
59660;DHT22;45534;52.690;6.268;2023-04-24T07:22:00;9.40;99.90
59660;DHT22;45534;52.690;6.268;2023-04-24T07:24:26;9.40;99.90
59660;DHT22;45534;52.690;6.268;2023-04-24T07:26:52;9.40;99.90
59660;DHT22;45534;52.690;6.268;2023-04-24T07:29:18;9.40;99.90
59660;DHT22;45534;52.690;6.268;2023-04-24T07:31:44;9.40;99.90
59660;DHT22;45534;52.690;6.268;2023-04-24T07:34:10;9.40;99.90
59660;DHT22;45534;52.690;6.268;2023-04-24T07:36:36;9.40;99.90
59660;DHT22;45534;52.690;6.268;2023-04-24T07:39:06;9.40;99.90
59660;DHT22;45534;52.690;6.268;2023-04-24T07:41:32;9.40;99.90
59660;DHT22;45534;52.690;6.268;2023-04-24T07:43:58;9.40;99.90
59660;DHT22;45534;52.690;6.268;2023-04-24T07:46:24;9.30;99.90
59660;DHT22;45534;52.690;6.268;2023-04-24T07:48:50;9.30;99.90
59660;DHT22;45534;52.690;6.268;2023-04-24T07:51:16;9.30;99.90
59660;DHT22;45534;52.690;6.268;2023-04-24T07:53:42;9.30;99.90
59660;DHT22;45534;52.690;6.268;2023-04-24T07:56:08;9.20;99.90
59660;DHT22;45534;52.690;6.268;2023-04-24T07:58:34;9.20;99.90
59660;DHT22;45534;52.690;6.268;2023-04-24T08:01:00;9.20;99.90
59660;DHT22;45534;52.690;6.268;2023-04-24T08:03:26;9.20;99.90
59660;DHT22;45534;52.690;6.268;2023-04-24T08:05:52;9.20;99.90
59660;DHT22;45534;52.690;6.268;2023-04-24T08:08:22;9.10;99.90
59660;DHT22;45534;52.690;6.268;2023-04-24T08:10:49;9.10;99.90
59660;DHT22;45534;52.690;6.268;2023-04-24T08:13:14;9.00;99.90
59660;DHT22;45534;52.690;6.268;2023-04-24T08:15:40;9.00;99.90
59660;DHT22;45534;52.690;6.268;2023-04-24T08:18:06;9.00;99.90
59660;DHT22;45534;52.690;6.268;2023-04-24T08:20:33;8.90;99.90
59660;DHT22;45534;52.690;6.268;2023-04-24T08:22:59;8.90;99.90
59660;DHT22;45534;52.690;6.268;2023-04-24T08:25:24;8.90;99.90
59660;DHT22;45534;52.690;6.268;2023-04-24T08:27:51;8.90;99.90
59660;DHT22;45534;52.690;6.268;2023-04-24T08:30:17;8.80;99.90
59660;DHT22;45534;52.690;6.268;2023-04-24T08:32:43;8.80;99.90
59660;DHT22;45534;52.690;6.268;2023-04-24T08:35:09;8.80;99.90
59660;DHT22;45534;52.690;6.268;2023-04-24T08:37:35;8.70;99.90
59660;DHT22;45534;52.690;6.268;2023-04-24T08:40:06;8.70;99.90
59660;DHT22;45534;52.690;6.268;2023-04-24T08:42:37;8.60;99.90
59660;DHT22;45534;52.690;6.268;2023-04-24T08:45:03;8.60;99.90
59660;DHT22;45534;52.690;6.268;2023-04-24T08:47:29;8.60;99.90
59660;DHT22;45534;52.690;6.268;2023-04-24T08:49:56;8.50;99.90
59660;DHT22;45534;52.690;6.268;2023-04-24T08:52:22;8.50;99.90
59660;DHT22;45534;52.690;6.268;2023-04-24T08:54:48;8.50;99.90
59660;DHT22;45534;52.690;6.268;2023-04-24T08:57:14;8.50;99.90
59660;DHT22;45534;52.690;6.268;2023-04-24T08:59:40;8.60;99.90
59660;DHT22;45534;52.690;6.268;2023-04-24T09:02:10;8.60;99.90
59660;DHT22;45534;52.690;6.268;2023-04-24T09:04:37;8.60;99.90
59660;DHT22;45534;52.690;6.268;2023-04-24T09:07:03;8.70;99.90
59660;DHT22;45534;52.690;6.268;2023-04-24T09:09:32;8.70;99.90
59660;DHT22;45534;52.690;6.268;2023-04-24T09:11:58;8.70;99.90
59660;DHT22;45534;52.690;6.268;2023-04-24T09:14:26;8.70;99.90
59660;DHT22;45534;52.690;6.268;2023-04-24T09:16:53;8.80;99.90
59660;DHT22;45534;52.690;6.268;2023-04-24T09:19:19;8.90;99.90
59660;DHT22;45534;52.690;6.268;2023-04-24T09:21:47;9.00;99.90
59660;DHT22;45534;52.690;6.268;2023-04-24T09:24:20;9.00;99.90
59660;DHT22;45534;52.690;6.268;2023-04-24T09:26:49;9.10;99.90
59660;DHT22;45534;52.690;6.268;2023-04-24T09:29:18;9.20;99.90
59660;DHT22;45534;52.690;6.268;2023-04-24T09:31:45;9.20;99.90
59660;DHT22;45534;52.690;6.268;2023-04-24T09:34:11;9.20;99.90
59660;DHT22;45534;52.690;6.268;2023-04-24T09:36:42;9.20;99.90
59660;DHT22;45534;52.690;6.268;2023-04-24T09:39:10;9.20;99.90
59660;DHT22;45534;52.690;6.268;2023-04-24T09:41:53;9.20;99.90
59660;DHT22;45534;52.690;6.268;2023-04-24T09:44:25;9.30;99.90
59660;DHT22;45534;52.690;6.268;2023-04-24T09:46:54;9.40;99.90
59660;DHT22;45534;52.690;6.268;2023-04-24T09:49:25;9.40;99.90
59660;DHT22;45534;52.690;6.268;2023-04-24T09:52:05;9.40;99.90
59660;DHT22;45534;52.690;6.268;2023-04-24T09:54:31;9.40;99.90
59660;DHT22;45534;52.690;6.268;2023-04-24T09:56:57;9.40;99.90
59660;DHT22;45534;52.690;6.268;2023-04-24T09:59:22;9.30;99.90
59660;DHT22;45534;52.690;6.268;2023-04-24T10:01:49;9.30;99.90
59660;DHT22;45534;52.690;6.268;2023-04-24T10:04:17;9.10;99.90
59660;DHT22;45534;52.690;6.268;2023-04-24T10:06:47;8.90;99.90
59660;DHT22;45534;52.690;6.268;2023-04-24T10:09:15;8.80;99.90
59660;DHT22;45534;52.690;6.268;2023-04-24T10:11:45;8.70;99.90
59660;DHT22;45534;52.690;6.268;2023-04-24T10:14:15;8.60;99.90
59660;DHT22;45534;52.690;6.268;2023-04-24T10:16:42;8.60;99.90
59660;DHT22;45534;52.690;6.268;2023-04-24T10:19:09;8.60;99.90
59660;DHT22;45534;52.690;6.268;2023-04-24T10:21:35;8.60;99.90
59660;DHT22;45534;52.690;6.268;2023-04-24T10:24:04;8.60;99.90
59660;DHT22;45534;52.690;6.268;2023-04-24T10:26:33;8.70;99.90
59660;DHT22;45534;52.690;6.268;2023-04-24T10:28:59;8.70;99.90
59660;DHT22;45534;52.690;6.268;2023-04-24T10:31:26;8.80;99.90
59660;DHT22;45534;52.690;6.268;2023-04-24T10:33:53;8.90;99.90
59660;DHT22;45534;52.690;6.268;2023-04-24T10:36:22;9.00;99.90
59660;DHT22;45534;52.690;6.268;2023-04-24T10:38:49;9.00;99.90
59660;DHT22;45534;52.690;6.268;2023-04-24T10:41:18;9.10;99.90
59660;DHT22;45534;52.690;6.268;2023-04-24T10:44:03;9.10;99.90
59660;DHT22;45534;52.690;6.268;2023-04-24T10:46:30;9.20;99.90
59660;DHT22;45534;52.690;6.268;2023-04-24T10:48:56;9.40;99.90
59660;DHT22;45534;52.690;6.268;2023-04-24T10:51:24;9.50;99.90
59660;DHT22;45534;52.690;6.268;2023-04-24T10:54:27;9.70;99.90
59660;DHT22;45534;52.690;6.268;2023-04-24T10:56:55;9.80;99.90
59660;DHT22;45534;52.690;6.268;2023-04-24T10:59:39;9.80;99.90
59660;DHT22;45534;52.690;6.268;2023-04-24T11:02:07;9.90;99.90
59660;DHT22;45534;52.690;6.268;2023-04-24T11:04:34;9.90;99.90
59660;DHT22;45534;52.690;6.268;2023-04-24T11:07:01;9.90;99.90
59660;DHT22;45534;52.690;6.268;2023-04-24T11:09:28;9.80;99.90
59660;DHT22;45534;52.690;6.268;2023-04-24T11:12:05;9.80;99.90
59660;DHT22;45534;52.690;6.268;2023-04-24T11:17:37;9.80;99.90
59660;DHT22;45534;52.690;6.268;2023-04-24T11:20:05;9.80;99.90
59660;DHT22;45534;52.690;6.268;2023-04-24T11:22:39;9.90;99.90
59660;DHT22;45534;52.690;6.268;2023-04-24T11:25:06;9.90;99.90
59660;DHT22;45534;52.690;6.268;2023-04-24T11:27:40;9.90;99.90
59660;DHT22;45534;52.690;6.268;2023-04-24T11:30:06;9.90;99.90
59660;DHT22;45534;52.690;6.268;2023-04-24T11:34:59;10.00;99.90
59660;DHT22;45534;52.690;6.268;2023-04-24T11:37:37;9.90;99.90
59660;DHT22;45534;52.690;6.268;2023-04-24T11:40:05;9.80;99.90
59660;DHT22;45534;52.690;6.268;2023-04-24T11:42:52;9.80;99.90
59660;DHT22;45534;52.690;6.268;2023-04-24T11:45:30;9.60;99.90
59660;DHT22;45534;52.690;6.268;2023-04-24T11:47:56;9.50;99.90
59660;DHT22;45534;52.690;6.268;2023-04-24T11:50:24;9.50;99.90
59660;DHT22;45534;52.690;6.268;2023-04-24T11:52:54;9.50;99.90
59660;DHT22;45534;52.690;6.268;2023-04-24T11:57:51;9.60;99.90
59660;DHT22;45534;52.690;6.268;2023-04-24T12:02:49;9.60;99.90
59660;DHT22;45534;52.690;6.268;2023-04-24T12:05:22;9.60;99.90
59660;DHT22;45534;52.690;6.268;2023-04-24T12:07:48;9.60;99.90
59660;DHT22;45534;52.690;6.268;2023-04-24T12:10:14;9.60;99.90
59660;DHT22;45534;52.690;6.268;2023-04-24T12:12:40;9.60;99.90
59660;DHT22;45534;52.690;6.268;2023-04-24T12:15:09;9.70;99.90
59660;DHT22;45534;52.690;6.268;2023-04-24T12:17:35;9.90;99.90
59660;DHT22;45534;52.690;6.268;2023-04-24T12:20:06;10.00;99.90
59660;DHT22;45534;52.690;6.268;2023-04-24T12:22:55;10.20;99.90
59660;DHT22;45534;52.690;6.268;2023-04-24T12:25:26;10.10;99.90
59660;DHT22;45534;52.690;6.268;2023-04-24T12:30:32;9.60;99.90
59660;DHT22;45534;52.690;6.268;2023-04-24T12:33:00;9.40;99.90
59660;DHT22;45534;52.690;6.268;2023-04-24T12:35:31;9.30;99.90
59660;DHT22;45534;52.690;6.268;2023-04-24T12:38:12;9.20;99.90
59660;DHT22;45534;52.690;6.268;2023-04-24T12:40:39;9.20;99.90
59660;DHT22;45534;52.690;6.268;2023-04-24T12:43:19;9.20;99.90
59660;DHT22;45534;52.690;6.268;2023-04-24T12:45:48;9.20;99.90
59660;DHT22;45534;52.690;6.268;2023-04-24T12:48:14;9.30;99.90
59660;DHT22;45534;52.690;6.268;2023-04-24T12:50:40;9.30;99.90
59660;DHT22;45534;52.690;6.268;2023-04-24T12:53:07;9.40;99.90
59660;DHT22;45534;52.690;6.268;2023-04-24T12:55:34;9.50;99.90
59660;DHT22;45534;52.690;6.268;2023-04-24T12:57:59;9.50;99.90
59660;DHT22;45534;52.690;6.268;2023-04-24T13:00:25;9.60;99.90
59660;DHT22;45534;52.690;6.268;2023-04-24T13:02:51;9.60;99.90
59660;DHT22;45534;52.690;6.268;2023-04-24T13:05:17;9.60;99.90
59660;DHT22;45534;52.690;6.268;2023-04-24T13:07:42;9.60;99.90
59660;DHT22;45534;52.690;6.268;2023-04-24T13:10:08;9.60;99.90
59660;DHT22;45534;52.690;6.268;2023-04-24T13:12:34;9.60;99.90
59660;DHT22;45534;52.690;6.268;2023-04-24T13:15:00;9.70;99.90
59660;DHT22;45534;52.690;6.268;2023-04-24T13:17:26;9.70;99.90
59660;DHT22;45534;52.690;6.268;2023-04-24T13:19:54;9.80;99.90
59660;DHT22;45534;52.690;6.268;2023-04-24T13:22:20;9.70;99.90
59660;DHT22;45534;52.690;6.268;2023-04-24T13:24:46;9.80;99.90
59660;DHT22;45534;52.690;6.268;2023-04-24T13:27:14;9.70;99.90
59660;DHT22;45534;52.690;6.268;2023-04-24T13:29:40;9.70;99.90
59660;DHT22;45534;52.690;6.268;2023-04-24T13:32:07;9.70;99.90
59660;DHT22;45534;52.690;6.268;2023-04-24T13:34:33;9.70;99.90
59660;DHT22;45534;52.690;6.268;2023-04-24T13:37:00;9.70;99.90
59660;DHT22;45534;52.690;6.268;2023-04-24T13:39:26;9.80;99.90
59660;DHT22;45534;52.690;6.268;2023-04-24T13:41:52;9.80;99.90
59660;DHT22;45534;52.690;6.268;2023-04-24T13:44:19;9.70;99.90
59660;DHT22;45534;52.690;6.268;2023-04-24T13:46:46;9.60;99.90
59660;DHT22;45534;52.690;6.268;2023-04-24T13:49:13;9.60;99.90
59660;DHT22;45534;52.690;6.268;2023-04-24T13:51:39;9.50;99.90
59660;DHT22;45534;52.690;6.268;2023-04-24T13:54:05;9.40;99.90
59660;DHT22;45534;52.690;6.268;2023-04-24T13:56:31;9.30;99.90
59660;DHT22;45534;52.690;6.268;2023-04-24T13:58:57;9.30;99.90
59660;DHT22;45534;52.690;6.268;2023-04-24T14:01:23;9.30;99.90
59660;DHT22;45534;52.690;6.268;2023-04-24T14:03:54;9.40;99.90
59660;DHT22;45534;52.690;6.268;2023-04-24T14:06:21;9.30;99.90
59660;DHT22;45534;52.690;6.268;2023-04-24T14:08:49;9.40;99.90
59660;DHT22;45534;52.690;6.268;2023-04-24T14:11:16;9.40;99.90
59660;DHT22;45534;52.690;6.268;2023-04-24T14:13:42;9.40;99.90
59660;DHT22;45534;52.690;6.268;2023-04-24T14:16:09;9.40;99.90
59660;DHT22;45534;52.690;6.268;2023-04-24T14:18:35;9.30;99.90
59660;DHT22;45534;52.690;6.268;2023-04-24T14:21:04;9.30;99.90
59660;DHT22;45534;52.690;6.268;2023-04-24T14:23:30;9.30;99.90
59660;DHT22;45534;52.690;6.268;2023-04-24T14:25:57;9.30;99.90
59660;DHT22;45534;52.690;6.268;2023-04-24T14:28:23;9.30;99.90
59660;DHT22;45534;52.690;6.268;2023-04-24T14:30:49;9.30;99.90
59660;DHT22;45534;52.690;6.268;2023-04-24T14:33:15;9.20;99.90
59660;DHT22;45534;52.690;6.268;2023-04-24T14:35:41;9.20;99.90
59660;DHT22;45534;52.690;6.268;2023-04-24T14:38:08;9.30;99.90
59660;DHT22;45534;52.690;6.268;2023-04-24T14:40:34;9.30;99.90
59660;DHT22;45534;52.690;6.268;2023-04-24T14:43:00;9.40;99.90
59660;DHT22;45534;52.690;6.268;2023-04-24T14:45:26;9.50;99.90
59660;DHT22;45534;52.690;6.268;2023-04-24T14:47:52;9.60;99.90
59660;DHT22;45534;52.690;6.268;2023-04-24T14:50:18;9.60;99.90
59660;DHT22;45534;52.690;6.268;2023-04-24T14:52:44;9.50;99.90
59660;DHT22;45534;52.690;6.268;2023-04-24T14:55:10;9.50;99.90
59660;DHT22;45534;52.690;6.268;2023-04-24T14:57:35;9.50;99.90
59660;DHT22;45534;52.690;6.268;2023-04-24T15:00:03;9.50;99.90
59660;DHT22;45534;52.690;6.268;2023-04-24T15:02:34;9.60;99.90
59660;DHT22;45534;52.690;6.268;2023-04-24T15:04:59;9.60;99.90
59660;DHT22;45534;52.690;6.268;2023-04-24T15:07:25;9.70;99.90
59660;DHT22;45534;52.690;6.268;2023-04-24T15:09:51;9.60;99.90
59660;DHT22;45534;52.690;6.268;2023-04-24T15:12:17;9.60;99.90
59660;DHT22;45534;52.690;6.268;2023-04-24T15:14:42;9.50;99.90
59660;DHT22;45534;52.690;6.268;2023-04-24T15:17:08;9.50;99.90
59660;DHT22;45534;52.690;6.268;2023-04-24T15:19:34;9.50;99.90
59660;DHT22;45534;52.690;6.268;2023-04-24T15:21:59;9.50;99.90
59660;DHT22;45534;52.690;6.268;2023-04-24T15:24:25;9.60;99.90
59660;DHT22;45534;52.690;6.268;2023-04-24T15:26:51;9.50;99.90
59660;DHT22;45534;52.690;6.268;2023-04-24T15:29:17;9.50;99.90
59660;DHT22;45534;52.690;6.268;2023-04-24T15:31:42;9.50;99.90
59660;DHT22;45534;52.690;6.268;2023-04-24T15:34:08;9.50;99.90
59660;DHT22;45534;52.690;6.268;2023-04-24T15:36:34;9.50;99.90
59660;DHT22;45534;52.690;6.268;2023-04-24T15:39:04;9.60;99.90
59660;DHT22;45534;52.690;6.268;2023-04-24T15:41:29;9.70;99.90
59660;DHT22;45534;52.690;6.268;2023-04-24T15:43:57;9.80;99.90
59660;DHT22;45534;52.690;6.268;2023-04-24T15:46:22;9.90;99.90
59660;DHT22;45534;52.690;6.268;2023-04-24T15:48:48;10.00;99.90
59660;DHT22;45534;52.690;6.268;2023-04-24T15:51:14;10.00;99.90
59660;DHT22;45534;52.690;6.268;2023-04-24T15:53:40;10.00;99.90
59660;DHT22;45534;52.690;6.268;2023-04-24T15:56:05;9.90;99.90